Time;durP1;ratioP1;P1;durP2;ratioP2;P2;SDS_P1;SDS_P2;PMS_P1;PMS_P2;Temp;Humidity;BMP_temperature;BMP_pressure;BME280_temperature;BME280_humidity;BME280_pressure;Samples;Min_cycle;Max_cycle;Signal;HPM_P1;HPM_P2
2023/02/04 14:08:53;;;;;;;10.38;4.30;;;28.70;53.80;;;;;;5094055;27;20586;-70
2023/02/04 14:11:20;;;;;;;17.08;9.73;;;28.60;53.20;;;;;;5100642;28;20359;-72
2023/02/04 14:13:46;;;;;;;22.25;10.05;;;28.60;53.20;;;;;;5083265;28;20036;-74
2023/02/04 14:16:13;;;;;;;21.95;6.93;;;28.70;53.40;;;;;;5089435;28;20482;-73
2023/02/04 14:18:39;;;;;;;11.73;4.10;;;28.70;53.60;;;;;;5084368;28;20029;-74
2023/02/04 14:21:06;;;;;;;14.77;4.93;;;28.80;53.50;;;;;;5088250;28;20025;-71
2023/02/04 14:23:32;;;;;;;17.45;9.55;;;28.90;53.10;;;;;;5085801;28;20026;-74
2023/02/04 14:25:59;;;;;;;18.15;7.63;;;28.90;52.50;;;;;;5086162;28;20023;-75
2023/02/04 14:28:25;;;;;;;16.55;8.20;;;28.90;52.20;;;;;;5083840;28;20036;-74
2023/02/04 14:30:53;;;;;;;17.48;5.25;;;29.00;51.80;;;;;;5083877;28;20028;-71
2023/02/04 14:33:20;;;;;;;18.38;4.43;;;29.00;51.50;;;;;;5086192;28;20126;-72
2023/02/04 14:35:47;;;;;;;14.40;5.40;;;29.00;51.60;;;;;;5084880;28;20023;-70
2023/02/04 14:38:14;;;;;;;72.18;58.85;;;29.00;51.20;;;;;;5082341;28;20016;-73
2023/02/04 14:40:44;;;;;;;16.02;5.55;;;29.00;51.10;;;;;;5086099;28;20078;-72
2023/02/04 14:43:17;;;;;;;14.52;4.85;;;29.10;50.50;;;;;;5087134;28;20024;-72
2023/02/04 14:45:44;;;;;;;24.90;13.57;;;29.00;51.00;;;;;;5084477;28;20028;-72
2023/02/04 14:48:11;;;;;;;20.42;6.90;;;29.00;51.60;;;;;;5085455;28;20089;-72
2023/02/04 14:50:38;;;;;;;18.63;5.70;;;29.10;51.50;;;;;;5081821;28;20020;-73
2023/02/04 14:53:04;;;;;;;18.63;4.72;;;29.10;51.20;;;;;;5084134;28;20501;-72
2023/02/04 14:55:31;;;;;;;18.92;5.60;;;29.10;51.40;;;;;;5082089;28;20111;-72
2023/02/04 14:57:59;;;;;;;15.57;4.53;;;29.10;51.90;;;;;;5080524;28;20031;-73
2023/02/04 15:00:25;;;;;;;13.35;3.85;;;29.10;51.50;;;;;;5084785;28;20023;-75
2023/02/04 15:02:55;;;;;;;16.15;3.90;;;29.10;51.20;;;;;;5083285;28;20122;-72
2023/02/04 15:05:27;;;;;;;11.68;3.65;;;29.10;50.80;;;;;;5084560;28;20416;-74
2023/02/04 15:07:54;;;;;;;12.18;4.22;;;29.10;51.60;;;;;;5077757;28;20044;-74
2023/02/04 15:10:21;;;;;;;9.85;4.97;;;29.10;52.00;;;;;;5083617;28;20019;-72
2023/02/04 15:12:48;;;;;;;14.35;4.82;;;29.10;52.20;;;;;;5079893;28;20032;-71
2023/02/04 15:15:14;;;;;;;8.95;3.83;;;29.10;52.90;;;;;;5085068;28;20028;-71
2023/02/04 15:17:41;;;;;;;14.30;3.85;;;29.10;52.70;;;;;;5082883;28;20383;-69
2023/02/04 15:20:08;;;;;;;14.30;3.80;;;29.10;51.80;;;;;;5070038;28;20031;-72
2023/02/04 15:22:34;;;;;;;10.38;3.92;;;29.10;50.90;;;;;;5070368;28;20047;-72
2023/02/04 15:25:01;;;;;;;12.82;3.47;;;29.10;50.60;;;;;;5069424;28;20036;-71
2023/02/04 15:27:28;;;;;;;15.77;5.90;;;29.10;50.50;;;;;;5069289;28;20086;-72
2023/02/04 15:30:00;;;;;;;12.98;5.97;;;29.10;49.90;;;;;;5068052;28;20071;-73
2023/02/04 15:32:30;;;;;;;14.50;4.38;;;29.10;49.40;;;;;;5069074;28;20029;-72
2023/02/04 15:34:58;;;;;;;8.15;4.88;;;29.10;48.80;;;;;;5069373;28;20029;-71
2023/02/04 15:37:24;;;;;;;8.90;4.00;;;29.10;48.50;;;;;;5063979;28;20093;-70
2023/02/04 15:39:51;;;;;;;10.88;5.15;;;29.10;48.30;;;;;;5066533;28;20024;-73
2023/02/04 15:42:17;;;;;;;9.43;4.07;;;29.10;48.00;;;;;;5069806;28;20016;-71
2023/02/04 15:44:44;;;;;;;7.60;3.65;;;29.10;47.80;;;;;;5069613;28;20021;-72
2023/02/04 15:47:10;;;;;;;14.73;3.70;;;29.20;47.50;;;;;;5067898;28;20084;-72
2023/02/04 15:49:38;;;;;;;7.97;3.28;;;29.20;47.40;;;;;;5069689;28;20363;-72
2023/02/04 15:52:04;;;;;;;9.90;3.13;;;29.20;47.50;;;;;;5066771;28;20028;-72
2023/02/04 15:54:31;;;;;;;13.00;4.15;;;29.20;47.50;;;;;;5069625;28;20028;-74
2023/02/04 15:56:57;;;;;;;14.07;4.53;;;29.10;47.60;;;;;;5067937;28;20750;-73
2023/02/04 15:59:24;;;;;;;13.13;4.90;;;29.20;47.90;;;;;;5067072;28;20028;-72
2023/02/04 16:01:50;;;;;;;17.77;8.63;;;29.10;48.20;;;;;;5068591;28;20109;-72
